• Join FlightAware (Why Join?)
  • Login
  • US Flag 
11:12PM EDT


 

Airport Tracker/Info


-or-


 

Live Flight TrackerFlight Track Log ✈ CSN6337 ✈ 09-Nov-2013 ✈ ZSNJ / NKG - ZJHK / HAK

Flight Track Log - Related Links

Times and Time Zones

All times are in EST time to prevent confusion due to time zone crossing. See the CSN6337 flight status page for this flight to view local times or setup timezone preferences in your user account.

Time Position Orientation Groundspeed Altitude Reporting Facility
EST Latitude Longitude Course Direction KTS MPH feet Rate Location/Type
09:44PM 31.6483 118.7861 215° Southwest  Level Estimated
09:45PM 31.5544 118.7103 215° Southwest  Level Estimated
09:46PM 31.4605 118.6347 214° Southwest  Level Estimated
09:47PM 31.3666 118.5592 214° Southwest  Level Estimated
09:48PM 31.2726 118.4839 214° Southwest  Level Estimated
09:49PM 31.1786 118.4087 214° Southwest  Level Estimated
09:50PM 31.0845 118.3337 214° Southwest  Level Estimated
09:51PM 30.9904 118.2588 214° Southwest  Level Estimated
09:52PM 30.8962 118.1841 214° Southwest  Level Estimated
09:53PM 30.8020 118.1095 214° Southwest  Level Estimated
09:54PM 30.7078 118.0351 214° Southwest  Level Estimated
09:55PM 30.6135 117.9608 214° Southwest  Level Estimated
09:56PM 30.5192 117.8866 214° Southwest  Level Estimated
09:57PM 30.4248 117.8126 214° Southwest  Level Estimated
09:58PM 30.3304 117.7388 214° Southwest  Level Estimated
09:59PM 30.2360 117.6650 214° Southwest  Level Estimated
10:00PM 30.1415 117.5915 214° Southwest  Level Estimated
10:01PM 30.0469 117.5180 214° Southwest  Level Estimated
10:02PM 29.9524 117.4447 214° Southwest  Level Estimated
10:03PM 29.8578 117.3716 214° Southwest  Level Estimated
10:04PM 29.7631 117.2986 214° Southwest  Level Estimated
10:05PM 29.6684 117.2257 214° Southwest  Level Estimated
10:06PM 29.5737 117.1529 214° Southwest  Level Estimated
10:07PM 29.4789 117.0803 214° Southwest  Level Estimated
10:08PM 29.3841 117.0079 214° Southwest  Level Estimated
10:09PM 29.2893 116.9355 214° Southwest  Level Estimated
10:10PM 29.1944 116.8633 214° Southwest  Level Estimated
10:11PM 29.0994 116.7913 214° Southwest  Level Estimated
10:12PM 29.0045 116.7193 214° Southwest  Level Estimated
10:13PM 28.9095 116.6475 213° Southwest  Level Estimated
10:14PM 28.8144 116.5759 213° Southwest  Level Estimated
10:15PM 28.7194 116.5043 213° Southwest  Level Estimated
10:16PM 28.6242 116.4329 213° Southwest  Level Estimated
10:17PM 28.5291 116.3616 213° Southwest  Level Estimated
10:18PM 28.4339 116.2905 213° Southwest  Level Estimated
10:19PM 28.3387 116.2195 213° Southwest  Level Estimated
10:20PM 28.2434 116.1486 213° Southwest  Level Estimated
10:21PM 28.1481 116.0778 213° Southwest  Level Estimated
10:22PM 28.0528 116.0071 213° Southwest  Level Estimated
10:23PM 27.9574 115.9366 213° Southwest  Level Estimated
10:24PM 27.8620 115.8662 213° Southwest  Level Estimated
10:25PM 27.7665 115.7960 213° Southwest  Level Estimated
10:26PM 27.6710 115.7258 213° Southwest  Level Estimated
10:27PM 27.5755 115.6558 213° Southwest  Level Estimated
10:28PM 27.4800 115.5859 213° Southwest  Level Estimated
10:29PM 27.3844 115.5161 213° Southwest  Level Estimated
10:30PM 27.2888 115.4464 213° Southwest  Level Estimated
10:31PM 27.1931 115.3769 213° Southwest  Level Estimated
10:32PM 27.0974 115.3075 213° Southwest  Level Estimated
10:33PM 27.0017 115.2382 213° Southwest  Level Estimated
10:34PM 26.9059 115.1690 213° Southwest  Level Estimated
10:35PM 26.8102 115.0999 213° Southwest  Level Estimated
10:36PM 26.7143 115.0310 213° Southwest  Level Estimated
10:37PM 26.6185 114.9621 213° Southwest  Level Estimated
10:38PM 26.5226 114.8934 213° Southwest  Level Estimated
10:39PM 26.4267 114.8248 213° Southwest  Level Estimated
10:40PM 26.3307 114.7563 213° Southwest  Level Estimated
10:41PM 26.2347 114.6879 213° Southwest  Level Estimated
10:42PM 26.1387 114.6197 213° Southwest  Level Estimated
10:43PM 26.0426 114.5515 213° Southwest  Level Estimated
10:44PM 25.9466 114.4835 212° Southwest  Level Estimated
10:45PM 25.8504 114.4156 212° Southwest  Level Estimated
10:46PM 25.7543 114.3477 212° Southwest  Level Estimated
10:47PM 25.6581 114.2800 212° Southwest  Level Estimated
10:48PM 25.5619 114.2124 212° Southwest  Level Estimated
10:49PM 25.4657 114.1449 212° Southwest  Level Estimated
10:50PM 25.3694 114.0775 212° Southwest  Level Estimated
10:51PM 25.2731 114.0103 212° Southwest  Level Estimated
10:52PM 25.1768 113.9431 212° Southwest  Level Estimated
10:53PM 25.0804 113.8760 212° Southwest  Level Estimated
10:54PM 24.9840 113.8091 212° Southwest  Level Estimated
10:55PM 24.8876 113.7422 212° Southwest  Level Estimated
10:56PM 24.7911 113.6755 212° Southwest  Level Estimated
10:57PM 24.6947 113.6088 212° Southwest  Level Estimated
10:58PM 24.5981 113.5423 212° Southwest  Level Estimated
10:59PM 24.5016 113.4758 212° Southwest  Level Estimated
11:00PM 24.4050 113.4095 212° Southwest  Level Estimated
11:01PM 24.3084 113.3432 212° Southwest  Level Estimated
11:02PM 24.2118 113.2771 212° Southwest  Level Estimated
11:03PM 24.1151 113.2111 212° Southwest  Level Estimated
11:04PM 24.0184 113.1451 212° Southwest  Level Estimated
11:05PM 23.9217 113.0793 212° Southwest  Level Estimated
11:06PM 23.8250 113.0135 212° Southwest  Level Estimated
11:07PM 23.7282 112.9479 212° Southwest  Level Estimated
11:08PM 23.6314 112.8824 212° Southwest  Level Estimated
11:09PM 23.5346 112.8169 212° Southwest  Level Estimated
11:10PM 23.4377 112.7516 212° Southwest  Level Estimated
11:11PM 23.3409 112.6863 212° Southwest  Level Estimated
11:12PM 23.2440 112.6212 212° Southwest  Level Estimated
11:13PM 23.1470 112.5561 212° Southwest  Level Estimated
11:14PM 23.0501 112.4911 212° Southwest  Level Estimated
11:15PM 22.9531 112.4262 212° Southwest  Level Estimated
11:16PM 22.8561 112.3615 212° Southwest  Level Estimated
11:17PM 22.7590 112.2968 212° Southwest  Level Estimated
11:18PM 22.6620 112.2322 212° Southwest  Level Estimated
11:19PM 22.5649 112.1677 212° Southwest  Level Estimated
11:20PM 22.4678 112.1032 212° Southwest  Level Estimated
11:21PM 22.3706 112.0389 211° Southwest  Level Estimated
11:22PM 22.2734 111.9747 211° Southwest  Level Estimated
11:23PM 22.1763 111.9105 211° Southwest  Level Estimated
11:24PM 22.0790 111.8465 211° Southwest  Level Estimated
11:25PM 21.9818 111.7825 211° Southwest  Level Estimated
11:26PM 21.8845 111.7186 211° Southwest  Level Estimated
11:27PM 21.7872 111.6548 211° Southwest  Level Estimated
11:28PM 21.6899 111.5911 211° Southwest  Level Estimated
11:29PM 21.5926 111.5275 211° Southwest  Level Estimated
11:30PM 21.4952 111.4640 211° Southwest  Level Estimated
11:31PM 21.3978 111.4005 211° Southwest  Level Estimated
11:32PM 21.3004 111.3371 211° Southwest  Level Estimated
11:33PM 21.2030 111.2738 211° Southwest  Level Estimated
11:34PM 21.1055 111.2106 211° Southwest  Level Estimated
11:35PM 21.0080 111.1475 211° Southwest  Level Estimated
11:36PM 20.9105 111.0845 211° Southwest  Level Estimated
11:37PM 20.8130 111.0215 211° Southwest  Level Estimated
11:38PM 20.7154 110.9587 211° Southwest  Level Estimated
11:39PM 20.6178 110.8959 211° Southwest  Level Estimated
11:40PM 20.5203 110.8332 211° Southwest  Level Estimated
11:41PM 20.4226 110.7705 211° Southwest  Level Estimated
11:42PM 20.3250 110.7080 211° Southwest  Level Estimated
11:43PM 20.2273 110.6455 211° Southwest  Level Estimated
11:44PM 20.1296 110.5831 211° Southwest  Level Estimated
11:45PM 20.0319 110.5208 211° Southwest  Level Estimated
11:46PM 19.9349 110.4590 211° Southwest  Level Estimated
11:47PM 19.9349 110.4590 167° South  Level Estimated
11:48PM 19.9349 110.4590 167° South  Level Estimated
11:49PM 19.9349 110.4590 167° South  Level Estimated
11:50PM 19.9349 110.4590 167° South  Level Estimated
11:51PM 19.9349 110.4590 167° South  Level Estimated
11:52PM 19.9349 110.4590 167° South  Level Estimated
11:53PM 19.9349 110.4590 167° South  Level Estimated
11:54PM 19.9349 110.4590 167° South  Level Estimated
11:55PM 19.9349 110.4590 167° South  Level Estimated